Time;durP1;ratioP1;P1;durP2;ratioP2;P2;SDS_P1;SDS_P2;PMS_P1;PMS_P2;Temp;Humidity;BMP_temperature;BMP_pressure;BME280_temperature;BME280_humidity;BME280_pressure;Samples;Min_cycle;Max_cycle;Signal;HPM_P1;HPM_P2
2023/10/25 00:00:00;;;;;;;1.33;0.90;;;;;;;21.90;38.15;99297.09;4549186;28;21038;-57
2023/10/25 00:02:11;;;;;;;1.00;0.90;;;;;;;21.91;38.04;99301.59;4547595;28;21016;-56
2023/10/25 00:04:21;;;;;;;1.20;1.00;;;;;;;21.89;38.31;99306.97;4547629;28;20448;-55
2023/10/25 00:06:32;;;;;;;1.52;1.00;;;;;;;21.89;38.16;99300.38;4549806;28;24608;-57
2023/10/25 00:08:42;;;;;;;1.10;0.95;;;;;;;21.89;38.32;99300.38;4545568;28;20021;-57
2023/10/25 00:11:07;;;;;;;1.15;0.95;;;;;;;21.88;38.35;99293.81;4547848;28;20036;-55
2023/10/25 00:13:17;;;;;;;1.90;1.00;;;;;;;21.88;38.13;99290.94;4545987;28;20041;-55
2023/10/25 00:15:29;;;;;;;1.38;1.10;;;;;;;21.88;38.45;99293.81;4547522;28;20085;-57
2023/10/25 00:17:40;;;;;;;1.40;1.10;;;;;;;21.88;38.05;99296.69;4547650;28;20112;-56
2023/10/25 00:19:52;;;;;;;1.10;1.00;;;;;;;21.87;38.01;99300.78;4547383;28;20040;-57
2023/10/25 00:22:02;;;;;;;1.05;0.95;;;;;;;21.87;37.96;99312.28;4549270;28;20025;-57
2023/10/25 00:24:13;;;;;;;2.05;1.10;;;;;;;21.86;38.05;99307.78;4547557;28;20033;-56
2023/10/25 00:26:23;;;;;;;2.08;1.05;;;;;;;21.86;37.94;99304.91;4547385;28;20049;-57
2023/10/25 00:28:37;;;;;;;1.52;1.13;;;;;;;21.86;38.23;99304.91;4555294;28;20029;-56
2023/10/25 00:30:47;;;;;;;1.10;1.00;;;;;;;21.85;38.04;99305.31;4530429;28;20548;-56
2023/10/25 00:32:58;;;;;;;1.05;1.00;;;;;;;21.84;38.15;99304.47;4545834;28;20088;-57
2023/10/25 00:35:08;;;;;;;1.20;1.10;;;;;;;21.81;38.04;99305.31;4555330;28;20071;-57
2023/10/25 00:37:18;;;;;;;1.23;1.13;;;;;;;21.85;38.25;99311.84;4547639;28;20102;-57
2023/10/25 00:39:29;;;;;;;1.30;1.15;;;;;;;21.82;38.24;99312.69;4555307;28;20037;-54
2023/10/25 00:41:39;;;;;;;1.10;1.00;;;;;;;21.85;38.16;99311.06;4548972;28;20024;-57
2023/10/25 00:43:50;;;;;;;1.23;1.13;;;;;;;21.84;38.71;99309.41;4549406;28;20068;-56
2023/10/25 00:46:19;;;;;;;1.20;1.00;;;;;;;21.84;38.38;99304.47;4545937;28;20071;-56
2023/10/25 00:48:30;;;;;;;1.17;1.00;;;;;;;21.81;38.23;99296.69;4547584;28;20056;-57
2023/10/25 00:50:41;;;;;;;1.10;1.00;;;;;;;21.84;38.18;99292.16;4554944;28;20029;-55
2023/10/25 00:52:52;;;;;;;1.30;1.20;;;;;;;21.83;38.57;99293.41;4546898;28;20029;-54
2023/10/25 00:55:04;;;;;;;1.10;1.00;;;;;;;21.82;38.36;99292.56;4548734;28;20044;-56
2023/10/25 00:57:16;;;;;;;1.20;1.10;;;;;;;21.81;38.35;99288.06;4548155;28;20041;-57
2023/10/25 00:59:27;;;;;;;1.23;1.13;;;;;;;21.81;38.73;99290.94;4531822;28;20552;-57
2023/10/25 01:01:40;;;;;;;1.20;1.10;;;;;;;21.75;38.39;99274.47;4548230;28;20117;-57
2023/10/25 01:03:52;;;;;;;1.25;1.00;;;;;;;21.76;38.67;99285.59;4547427;28;20090;-55
2023/10/25 01:06:03;;;;;;;1.58;1.13;;;;;;;21.81;38.55;99276.56;4547682;28;20016;-54
2023/10/25 01:08:19;;;;;;;1.20;1.10;;;;;;;21.72;38.69;99261.72;4549776;28;20064;-57
2023/10/25 01:10:30;;;;;;;1.52;1.10;;;;;;;21.67;38.24;99247.81;4542012;28;20044;-57
2023/10/25 01:12:40;;;;;;;1.17;1.00;;;;;;;21.80;38.29;99280.66;4549785;28;20071;-56
2023/10/25 01:14:51;;;;;;;1.20;1.10;;;;;;;21.79;38.32;99279.03;4549924;28;20530;-57
2023/10/25 01:17:01;;;;;;;1.30;1.08;;;;;;;21.78;38.52;99277.41;4550336;28;20520;-57
2023/10/25 01:19:13;;;;;;;2.03;0.90;;;;;;;21.79;38.76;99279.03;4548855;28;20094;-57
2023/10/25 01:21:23;;;;;;;1.42;1.27;;;;;;;21.78;38.45;99277.41;4552315;28;20082;-57
2023/10/25 01:23:34;;;;;;;1.48;1.20;;;;;;;21.79;38.72;99283.94;4550774;28;20025;-57
2023/10/25 01:25:44;;;;;;;0.90;0.90;;;;;;;21.77;38.29;99284.34;4557375;28;20040;-57
2023/10/25 01:27:55;;;;;;;1.23;1.00;;;;;;;21.78;38.77;99279.44;4550844;28;20025;-56
2023/10/25 01:30:06;;;;;;;1.42;1.10;;;;;;;21.77;38.85;99280.69;4550879;28;20037;-57
2023/10/25 01:32:18;;;;;;;1.00;0.90;;;;;;;21.77;38.93;99275.72;4559486;28;20077;-56
2023/10/25 01:34:28;;;;;;;1.20;1.10;;;;;;;21.76;38.52;99268.34;4557536;28;20046;-56
2023/10/25 01:36:39;;;;;;;1.20;1.10;;;;;;;21.76;38.78;99276.97;4550381;28;20151;-56
2023/10/25 01:38:49;;;;;;;1.20;1.00;;;;;;;21.76;38.53;99274.09;4550913;28;20921;-57
2023/10/25 01:41:00;;;;;;;1.13;1.10;;;;;;;21.73;38.52;99271.19;4549440;28;21065;-57
2023/10/25 01:43:10;;;;;;;1.02;0.90;;;;;;;21.76;38.78;99273.25;4550036;28;20480;-56
2023/10/25 01:45:27;;;;;;;1.23;1.13;;;;;;;21.75;38.87;99266.72;4552265;28;20040;-56
2023/10/25 01:47:38;;;;;;;1.10;0.98;;;;;;;21.75;38.61;99278.22;4547711;28;20719;-56
2023/10/25 01:49:48;;;;;;;1.35;1.10;;;;;;;21.69;38.60;99268.28;4558334;28;20612;-57
2023/10/25 01:51:59;;;;;;;2.10;1.25;;;;;;;21.75;38.51;99272.47;4534243;28;20041;-56
2023/10/25 01:54:09;;;;;;;1.73;0.90;;;;;;;21.74;39.01;99269.97;4551122;28;20418;-57
2023/10/25 01:56:20;;;;;;;0.95;0.90;;;;;;;21.74;38.42;99270.78;4549950;28;20032;-55
2023/10/25 01:58:31;;;;;;;1.13;0.85;;;;;;;21.74;38.33;99270.78;4550672;28;20087;-56
2023/10/25 02:00:41;;;;;;;1.33;0.90;;;;;;;21.74;38.68;99269.97;4549544;28;20032;-57
2023/10/25 02:02:51;;;;;;;0.93;0.80;;;;;;;21.71;38.97;99267.88;4557563;28;20036;-54
2023/10/25 02:05:02;;;;;;;1.10;0.95;;;;;;;21.73;38.95;99274.88;4550012;28;20037;-57
2023/10/25 02:07:12;;;;;;;0.95;0.80;;;;;;;21.72;38.79;99269.53;4557102;28;20032;-57
2023/10/25 02:09:23;;;;;;;1.08;1.00;;;;;;;21.72;38.83;99270.34;4549017;28;20025;-57
2023/10/25 02:11:33;;;;;;;1.05;0.80;;;;;;;21.72;38.81;99266.69;4551424;28;20039;-57
2023/10/25 02:13:44;;;;;;;1.35;0.85;;;;;;;21.72;38.73;99266.69;4551084;28;20065;-57
2023/10/25 02:15:54;;;;;;;1.58;0.90;;;;;;;21.71;38.37;99262.97;4557151;28;20036;-57
2023/10/25 02:18:04;;;;;;;0.93;0.93;;;;;;;21.71;38.35;99265.84;4547774;28;20021;-57
2023/10/25 02:20:15;;;;;;;0.82;0.82;;;;;;;21.71;38.33;99259.28;4549968;28;20146;-55
2023/10/25 02:22:25;;;;;;;1.10;0.80;;;;;;;21.62;38.52;99248.19;4564906;28;20031;-56
2023/10/25 02:24:36;;;;;;;1.10;0.75;;;;;;;21.70;38.70;99252.72;4550940;28;20017;-54
2023/10/25 02:26:46;;;;;;;1.30;0.80;;;;;;;21.61;38.56;99242.84;4549345;28;20410;-55
2023/10/25 02:28:59;;;;;;;1.27;0.80;;;;;;;21.69;38.20;99256.81;4549618;28;20116;-55
2023/10/25 02:31:09;;;;;;;1.00;0.90;;;;;;;21.69;38.55;99262.56;4549277;28;20048;-57
2023/10/25 02:33:20;;;;;;;1.30;0.90;;;;;;;21.69;38.15;99256.81;4549784;28;20776;-56
2023/10/25 02:35:31;;;;;;;0.70;0.70;;;;;;;21.69;38.67;99256.81;4550649;28;20041;-55
2023/10/25 02:37:41;;;;;;;1.38;0.73;;;;;;;21.69;38.43;99248.19;4557106;28;20090;-57
2023/10/25 02:39:51;;;;;;;0.80;0.75;;;;;;;21.69;38.27;99247.38;4549168;28;20652;-57
2023/10/25 02:42:02;;;;;;;1.00;0.90;;;;;;;21.66;38.03;99246.13;4541183;28;20440;-57
2023/10/25 02:44:15;;;;;;;0.90;0.70;;;;;;;21.68;38.36;99246.56;4549765;28;20064;-57
2023/10/25 02:46:26;;;;;;;0.88;0.80;;;;;;;21.60;38.16;99236.28;4547293;28;20078;-57
2023/10/25 02:48:37;;;;;;;0.95;0.80;;;;;;;21.67;38.48;99247.81;4556447;28;20072;-57
2023/10/25 02:50:47;;;;;;;0.70;0.70;;;;;;;21.62;38.27;99233.84;4549196;28;20492;-57
2023/10/25 02:52:57;;;;;;;0.80;0.80;;;;;;;21.65;38.14;99241.63;4547011;28;20036;-55
2023/10/25 02:55:08;;;;;;;0.90;0.70;;;;;;;21.65;38.17;99241.63;4550540;28;20047;-57
2023/10/25 02:57:19;;;;;;;0.95;0.80;;;;;;;21.65;38.42;99238.75;4555484;28;20108;-57
2023/10/25 02:59:29;;;;;;;0.80;0.63;;;;;;;21.65;38.31;99233.03;4550931;28;20436;-57
2023/10/25 03:01:40;;;;;;;1.05;0.77;;;;;;;21.64;38.26;99225.66;4548540;28;20513;-56
2023/10/25 03:03:51;;;;;;;1.15;0.77;;;;;;;21.66;37.97;99228.09;4549149;28;20025;-55
2023/10/25 03:06:02;;;;;;;1.02;0.85;;;;;;;21.64;38.12;99224.81;4556603;28;20119;-57
2023/10/25 03:08:13;;;;;;;1.40;0.77;;;;;;;21.64;38.12;99219.91;4549850;28;20025;-56
2023/10/25 03:10:23;;;;;;;1.02;0.90;;;;;;;21.64;37.74;99230.56;4556462;28;20029;-57
2023/10/25 03:12:34;;;;;;;0.88;0.70;;;;;;;21.64;37.99;99213.31;4556436;28;20143;-57
2023/10/25 03:14:44;;;;;;;0.98;0.60;;;;;;;21.64;37.67;99225.66;4547068;28;20045;-56
2023/10/25 03:16:54;;;;;;;0.93;0.70;;;;;;;21.62;37.59;99221.53;4555838;28;20940;-55
2023/10/25 03:19:05;;;;;;;1.50;0.70;;;;;;;21.61;37.75;99212.06;4556241;28;20615;-54
2023/10/25 03:21:15;;;;;;;0.77;0.70;;;;;;;21.63;37.58;99218.25;4548827;28;20048;-57
2023/10/25 03:23:26;;;;;;;0.60;0.60;;;;;;;21.63;37.54;99215.38;4549970;28;20039;-54
2023/10/25 03:25:36;;;;;;;0.85;0.65;;;;;;;21.60;37.49;99213.31;4533470;28;20099;-56
2023/10/25 03:27:47;;;;;;;1.13;0.70;;;;;;;21.61;37.61;99209.19;4548844;28;20052;-55
2023/10/25 03:29:57;;;;;;;0.80;0.73;;;;;;;21.62;37.25;99218.66;4549839;28;20023;-54
2023/10/25 03:32:08;;;;;;;0.73;0.73;;;;;;;21.61;37.59;99208.41;4556823;28;20044;-54
2023/10/25 03:34:19;;;;;;;0.85;0.70;;;;;;;21.60;37.30;99207.56;4549568;28;20918;-54
2023/10/25 03:36:29;;;;;;;1.15;0.70;;;;;;;21.60;37.49;99210.44;4549235;28;20484;-56
2023/10/25 03:38:40;;;;;;;0.80;0.80;;;;;;;21.54;37.03;99197.72;4548590;28;20934;-55
2023/10/25 03:41:03;;;;;;;0.80;0.80;;;;;;;21.60;36.95;99206.75;4548828;28;20499;-57
2023/10/25 03:43:14;;;;;;;0.70;0.70;;;;;;;21.60;37.11;99198.97;4538993;28;20013;-55
2023/10/25 03:45:24;;;;;;;1.00;0.80;;;;;;;21.59;37.63;99194.47;4538888;28;20037;-57
2023/10/25 03:47:37;;;;;;;1.10;0.70;;;;;;;21.60;37.54;99192.38;4547432;28;20033;-56
2023/10/25 03:49:51;;;;;;;1.13;0.80;;;;;;;21.59;37.65;99194.47;4547849;28;20916;-54
2023/10/25 03:52:02;;;;;;;1.00;0.70;;;;;;;21.59;37.51;99182.97;4556757;28;20582;-57
2023/10/25 03:54:13;;;;;;;0.85;0.68;;;;;;;21.60;37.39;99195.25;4556178;28;20130;-57
2023/10/25 03:56:23;;;;;;;0.90;0.70;;;;;;;21.54;37.29;99197.72;4549424;28;20132;-57
2023/10/25 03:58:34;;;;;;;0.80;0.77;;;;;;;21.56;37.86;99203.06;4548676;28;20048;-55
2023/10/25 04:00:44;;;;;;;1.13;0.80;;;;;;;21.56;37.75;99200.19;4550009;28;20104;-57
2023/10/25 04:02:54;;;;;;;1.02;0.65;;;;;;;21.54;37.40;99197.72;4546991;28;20033;-57
2023/10/25 04:05:05;;;;;;;0.68;0.65;;;;;;;21.52;37.43;99191.56;4545606;28;20473;-55
2023/10/25 04:07:16;;;;;;;0.80;0.60;;;;;;;21.54;36.99;99191.97;4547683;28;20041;-57
2023/10/25 04:09:26;;;;;;;0.90;0.68;;;;;;;21.53;37.34;99187.44;4548018;28;20241;-57
2023/10/25 04:11:36;;;;;;;1.00;0.60;;;;;;;21.52;37.11;99187.84;4546643;28;20029;-56
2023/10/25 04:13:47;;;;;;;1.15;0.77;;;;;;;21.53;36.96;99192.38;4547687;28;20032;-57
2023/10/25 04:15:58;;;;;;;0.50;0.50;;;;;;;21.52;37.19;99180.06;4547294;28;20048;-56
2023/10/25 04:18:10;;;;;;;0.82;0.70;;;;;;;21.51;36.86;99178.44;4548013;28;20040;-57
2023/10/25 04:20:20;;;;;;;2.60;2.40;;;;;;;21.51;37.17;99175.56;4549364;28;20127;-57
2023/10/25 04:22:30;;;;;;;2.70;2.50;;;;;;;21.50;37.32;99168.16;4547381;28;20119;-57
2023/10/25 04:24:41;;;;;;;5.10;4.60;;;;;;;21.48;37.26;99170.66;4547433;28;20036;-57
2023/10/25 04:26:51;;;;;;;4.18;3.38;;;;;;;21.49;37.20;99169.41;4547372;28;20151;-54
2023/10/25 04:29:02;;;;;;;3.00;2.70;;;;;;;21.49;36.97;99163.66;4546278;28;20041;-56
2023/10/25 04:31:13;;;;;;;7.00;6.30;;;;;;;21.49;37.22;99160.78;4547646;28;20036;-57
2023/10/25 04:33:23;;;;;;;6.03;5.43;;;;;;;21.49;37.48;99152.19;4547670;28;20068;-54
2023/10/25 04:35:34;;;;;;;3.70;3.30;;;;;;;21.48;37.45;99162.03;4549014;28;20037;-56
2023/10/25 04:37:44;;;;;;;2.30;2.10;;;;;;;21.49;37.26;99149.31;4547065;28;20039;-57
2023/10/25 04:39:55;;;;;;;2.67;2.47;;;;;;;21.48;37.22;99143.97;4546445;28;20028;-57
2023/10/25 04:42:05;;;;;;;1.50;1.40;;;;;;;21.48;37.07;99146.84;4548264;28;20037;-55
2023/10/25 04:44:16;;;;;;;2.00;1.80;;;;;;;21.47;37.37;99139.47;4548730;28;20047;-57
2023/10/25 04:46:26;;;;;;;1.88;1.02;;;;;;;21.47;37.57;99140.28;4550900;28;20021;-56
2023/10/25 04:48:36;;;;;;;0.90;0.90;;;;;;;21.47;37.33;99134.53;4550380;28;20039;-56
2023/10/25 04:50:47;;;;;;;1.20;1.10;;;;;;;21.47;37.42;99137.41;4550397;28;20115;-56
2023/10/25 04:52:58;;;;;;;0.95;0.95;;;;;;;21.44;37.42;99129.63;4550316;28;20052;-56
2023/10/25 04:55:10;;;;;;;1.20;0.90;;;;;;;21.47;37.11;99133.75;4549100;28;20033;-57
2023/10/25 04:57:20;;;;;;;0.73;0.70;;;;;;;21.45;37.44;99118.97;4548835;28;20819;-57
2023/10/25 04:59:31;;;;;;;1.52;0.80;;;;;;;21.45;37.33;99128.41;4550946;28;20181;-57
2023/10/25 05:01:41;;;;;;;0.77;0.77;;;;;;;21.45;37.14;99125.53;4550514;28;20485;-56
2023/10/25 05:03:51;;;;;;;1.00;0.90;;;;;;;21.45;37.53;99121.84;4549761;28;20089;-57
2023/10/25 05:06:05;;;;;;;1.25;0.93;;;;;;;21.44;36.97;99121.00;4551658;28;20043;-55
2023/10/25 05:08:16;;;;;;;1.92;0.90;;;;;;;21.44;37.01;99115.28;4558079;28;20040;-55
2023/10/25 05:10:27;;;;;;;1.17;0.88;;;;;;;21.44;37.53;99118.13;4549771;28;20444;-57
2023/10/25 05:12:45;;;;;;;0.95;0.90;;;;;;;21.43;37.14;99119.38;4548935;28;20445;-56
2023/10/25 05:14:56;;;;;;;0.80;0.80;;;;;;;21.42;37.04;99120.59;4549592;28;20045;-57
2023/10/25 05:17:09;;;;;;;1.02;0.90;;;;;;;21.43;36.88;99119.38;4548887;28;20025;-56
2023/10/25 05:19:19;;;;;;;1.77;0.75;;;;;;;21.44;36.90;99123.06;4549579;28;20023;-56
2023/10/25 05:21:32;;;;;;;0.55;0.55;;;;;;;21.35;36.65;99109.13;4550053;28;21389;-57
2023/10/25 05:23:42;;;;;;;0.88;0.68;;;;;;;21.40;36.99;99105.84;4550059;28;20029;-57
2023/10/25 05:25:53;;;;;;;0.60;0.60;;;;;;;21.42;36.56;99120.59;4551211;28;20041;-56
2023/10/25 05:28:04;;;;;;;0.63;0.60;;;;;;;21.42;36.74;99108.31;4549878;28;20028;-57
2023/10/25 05:30:16;;;;;;;0.93;0.60;;;;;;;21.36;36.53;99115.69;4550779;28;20033;-57
2023/10/25 05:32:30;;;;;;;0.60;0.50;;;;;;;21.41;36.37;99118.97;4558191;28;20570;-57
2023/10/25 05:34:40;;;;;;;0.63;0.50;;;;;;;21.40;36.16;99116.50;4549763;28;20083;-58
2023/10/25 05:36:51;;;;;;;1.15;0.77;;;;;;;21.41;36.61;99121.81;4549462;28;20039;-57
2023/10/25 05:39:03;;;;;;;0.75;0.50;;;;;;;21.41;36.48;99118.13;4548846;28;20031;-57
2023/10/25 05:41:20;;;;;;;0.60;0.60;;;;;;;21.39;36.85;99115.66;4549410;28;20037;-57
2023/10/25 05:43:37;;;;;;;1.10;0.80;;;;;;;21.33;36.31;99100.09;4548482;28;20549;-57
2023/10/25 05:45:47;;;;;;;1.00;0.80;;;;;;;21.38;36.29;99113.22;4550277;28;20025;-55
2023/10/25 05:47:58;;;;;;;0.80;0.80;;;;;;;21.36;36.56;99112.81;4549310;28;20037;-57
2023/10/25 05:50:10;;;;;;;1.05;0.77;;;;;;;21.30;36.17;99095.16;4549618;28;20124;-57
2023/10/25 05:52:21;;;;;;;0.70;0.70;;;;;;;21.37;35.87;99112.41;4548815;28;20029;-56
2023/10/25 05:54:31;;;;;;;0.88;0.75;;;;;;;21.37;35.62;99109.53;4548568;28;20400;-55
2023/10/25 05:56:42;;;;;;;0.80;0.80;;;;;;;21.37;36.02;99109.53;4548993;28;20061;-57
2023/10/25 05:58:56;;;;;;;1.10;0.80;;;;;;;21.36;36.30;99110.75;4550515;28;20082;-56
2023/10/25 06:01:09;;;;;;;1.42;0.77;;;;;;;21.36;36.09;99110.75;4549149;28;20861;-57
2023/10/25 06:03:21;;;;;;;1.02;0.70;;;;;;;21.36;36.10;99116.47;4549159;28;20781;-56
2023/10/25 06:05:36;;;;;;;1.85;0.80;;;;;;;21.36;36.49;99105.00;4549850;28;20037;-57
2023/10/25 06:07:46;;;;;;;0.95;0.85;;;;;;;21.35;36.60;99097.63;4549718;28;20040;-57
2023/10/25 06:09:57;;;;;;;1.23;0.90;;;;;;;21.36;35.96;99109.94;4549110;28;20032;-56
2023/10/25 06:12:10;;;;;;;1.05;0.93;;;;;;;21.31;36.20;99091.06;4547179;28;20115;-56
2023/10/25 06:14:21;;;;;;;1.35;0.82;;;;;;;21.37;36.31;99102.97;4550518;28;20047;-57
2023/10/25 06:16:31;;;;;;;0.80;0.80;;;;;;;21.37;36.27;99100.09;4549628;28;20009;-56
2023/10/25 06:18:42;;;;;;;1.27;0.70;;;;;;;21.36;35.96;99105.00;4547707;28;20045;-56
2023/10/25 06:20:52;;;;;;;1.00;0.80;;;;;;;21.36;36.15;99104.22;4546867;28;20079;-56
2023/10/25 06:23:02;;;;;;;1.10;0.90;;;;;;;21.36;36.07;99116.47;4548285;28;20410;-54
2023/10/25 06:25:13;;;;;;;0.80;0.80;;;;;;;21.36;36.11;99116.47;4548476;28;20386;-57
2023/10/25 06:27:23;;;;;;;0.70;0.70;;;;;;;21.36;36.31;99115.69;4549614;28;20039;-55
2023/10/25 06:29:34;;;;;;;1.00;0.85;;;;;;;21.31;36.16;99113.22;4548460;28;20453;-58
2023/10/25 06:31:50;;;;;;;1.05;0.70;;;;;;;21.35;35.84;99117.72;4550227;28;20767;-56
2023/10/25 06:34:01;;;;;;;0.73;0.70;;;;;;;21.31;35.88;99113.22;4548860;28;20583;-57
2023/10/25 06:36:12;;;;;;;1.17;0.90;;;;;;;21.35;36.51;99117.72;4547752;28;20036;-56
2023/10/25 06:38:23;;;;;;;1.73;0.80;;;;;;;21.36;35.98;99121.44;4550659;28;20737;-57
2023/10/25 06:40:33;;;;;;;0.80;0.80;;;;;;;21.35;36.78;99120.59;4546978;28;20047;-56
2023/10/25 06:42:44;;;;;;;0.65;0.65;;;;;;;21.28;36.76;99109.09;4549005;28;20029;-57
2023/10/25 06:44:55;;;;;;;0.90;0.70;;;;;;;21.35;36.60;99126.34;4547307;28;20037;-57
2023/10/25 06:47:08;;;;;;;1.20;0.85;;;;;;;21.35;36.74;99122.63;4555790;28;20025;-57
2023/10/25 06:49:19;;;;;;;1.88;0.80;;;;;;;21.33;36.45;99114.44;4549430;28;20033;-57
2023/10/25 06:51:30;;;;;;;1.02;0.80;;;;;;;21.35;36.65;99119.75;4548178;28;21233;-57
2023/10/25 06:53:41;;;;;;;1.27;0.77;;;;;;;21.35;37.12;99120.59;4549581;28;20048;-57
2023/10/25 06:55:51;;;;;;;1.00;0.70;;;;;;;21.34;37.12;99118.97;4548070;28;20053;-57
2023/10/25 06:58:02;;;;;;;1.27;0.95;;;;;;;21.35;36.90;99119.75;4547410;28;20063;-57
2023/10/25 07:00:13;;;;;;;0.80;0.80;;;;;;;21.33;37.07;99117.31;4548975;28;20421;-56
2023/10/25 07:02:38;;;;;;;1.05;0.55;;;;;;;21.33;37.15;99122.22;4546950;28;20040;-55
2023/10/25 07:05:06;;;;;;;0.98;0.70;;;;;;;21.33;37.11;99123.03;4547758;28;20204;-57
2023/10/25 07:07:19;;;;;;;0.60;0.60;;;;;;;21.33;36.98;99111.56;4548901;28;20132;-56
2023/10/25 07:09:29;;;;;;;0.95;0.70;;;;;;;21.32;37.40;99109.94;4549301;28;20032;-54
2023/10/25 07:11:40;;;;;;;0.80;0.70;;;;;;;21.33;36.92;99105.81;4546803;28;20056;-57
2023/10/25 07:13:50;;;;;;;1.75;0.80;;;;;;;21.27;37.23;99095.16;4547939;28;20509;-56
2023/10/25 07:16:01;;;;;;;0.70;0.68;;;;;;;21.31;37.37;99096.78;4548882;28;20036;-56
2023/10/25 07:18:11;;;;;;;1.45;0.80;;;;;;;21.31;37.42;99091.06;4548456;28;20028;-55
2023/10/25 07:20:22;;;;;;;0.70;0.60;;;;;;;21.31;37.07;99101.72;4548618;28;20205;-57
2023/10/25 07:22:33;;;;;;;0.80;0.60;;;;;;;21.31;37.50;99096.78;4548655;28;20029;-57
2023/10/25 07:24:43;;;;;;;0.60;0.60;;;;;;;21.31;37.56;99087.38;4548659;28;20056;-57
2023/10/25 07:26:54;;;;;;;0.60;0.60;;;;;;;21.29;37.61;99079.19;4547610;28;20037;-56
2023/10/25 07:29:04;;;;;;;0.70;0.70;;;;;;;21.30;37.44;99072.22;4547332;28;20025;-55
2023/10/25 07:31:15;;;;;;;1.20;0.80;;;;;;;21.30;37.12;99069.34;4548501;28;21025;-54
2023/10/25 07:33:25;;;;;;;1.23;0.60;;;;;;;21.30;37.47;99071.38;4547492;28;20045;-57
2023/10/25 07:35:36;;;;;;;0.55;0.55;;;;;;;21.31;37.59;99055.81;4546643;28;20152;-57
2023/10/25 07:37:46;;;;;;;0.93;0.70;;;;;;;21.29;37.55;99056.22;4546460;28;20041;-55
2023/10/25 07:39:56;;;;;;;0.85;0.70;;;;;;;21.30;37.48;99052.13;4549230;28;20025;-55
2023/10/25 07:42:07;;;;;;;0.60;0.60;;;;;;;21.30;38.14;99057.84;4549343;28;20827;-57
2023/10/25 07:44:18;;;;;;;1.45;0.70;;;;;;;21.30;37.86;99055.00;4547306;28;20025;-57
2023/10/25 07:46:28;;;;;;;0.68;0.60;;;;;;;21.28;38.21;99048.81;4547580;28;20432;-54
2023/10/25 07:48:38;;;;;;;0.63;0.60;;;;;;;21.31;38.54;99052.94;4547140;28;20115;-55
2023/10/25 07:50:49;;;;;;;0.70;0.60;;;;;;;21.30;38.54;99049.25;4548447;28;20036;-55
2023/10/25 07:52:59;;;;;;;0.70;0.60;;;;;;;21.29;39.06;99041.06;4546597;28;20091;-57
2023/10/25 07:55:11;;;;;;;0.57;0.50;;;;;;;21.29;39.28;99041.88;4548397;28;20035;-57
2023/10/25 07:57:22;;;;;;;0.47;0.47;;;;;;;21.29;39.17;99036.13;4548444;28;20037;-57
2023/10/25 07:59:33;;;;;;;0.90;0.50;;;;;;;21.28;39.21;99028.75;4547880;28;20189;-57
2023/10/25 08:01:44;;;;;;;0.95;0.60;;;;;;;21.28;39.28;99031.59;4548974;28;20566;-57
2023/10/25 08:03:55;;;;;;;0.50;0.50;;;;;;;21.28;39.55;99034.47;4547411;28;20025;-57
2023/10/25 08:06:05;;;;;;;0.70;0.50;;;;;;;21.24;39.38;99019.31;4546232;28;20095;-57
2023/10/25 08:08:17;;;;;;;0.80;0.70;;;;;;;21.28;39.02;99017.25;4546984;28;20033;-57
2023/10/25 08:10:27;;;;;;;0.65;0.60;;;;;;;21.19;39.17;99002.50;4546043;28;20095;-56
2023/10/25 08:12:37;;;;;;;0.45;0.45;;;;;;;21.28;39.10;99011.53;4546243;28;20021;-54
2023/10/25 08:14:48;;;;;;;0.60;0.60;;;;;;;21.26;39.59;99005.41;4546789;28;20076;-57
2023/10/25 08:16:58;;;;;;;0.47;0.47;;;;;;;21.25;39.71;99000.88;4546103;28;20493;-57
2023/10/25 08:19:09;;;;;;;0.77;0.60;;;;;;;21.27;39.59;98997.59;4548048;28;20041;-57
2023/10/25 08:21:19;;;;;;;0.50;0.50;;;;;;;21.20;39.66;98986.94;4548069;28;26763;-56
2023/10/25 08:23:30;;;;;;;0.55;0.40;;;;;;;21.26;39.64;98993.91;4546702;28;20371;-57
2023/10/25 08:25:40;;;;;;;1.02;0.40;;;;;;;21.27;40.23;98991.84;4547246;28;20087;-57
2023/10/25 08:27:51;;;;;;;0.93;0.50;;;;;;;21.26;39.82;98991.03;4547920;28;20815;-55
2023/10/25 08:30:03;;;;;;;1.02;0.40;;;;;;;21.26;39.96;98991.03;4546597;28;20055;-57
2023/10/25 08:32:13;;;;;;;0.30;0.30;;;;;;;21.26;40.36;98990.22;4545298;28;20141;-57
2023/10/25 08:34:24;;;;;;;1.13;0.32;;;;;;;21.26;40.55;98988.19;4547611;28;20115;-57
2023/10/25 08:36:36;;;;;;;0.73;0.43;;;;;;;21.26;40.27;98981.59;4546428;28;20037;-57
2023/10/25 08:38:46;;;;;;;0.50;0.50;;;;;;;21.25;39.92;98977.13;4546554;28;20036;-57
2023/10/25 08:41:07;;;;;;;0.47;0.40;;;;;;;21.24;40.54;98964.81;4547213;28;24197;-57
2023/10/25 08:43:18;;;;;;;0.60;0.40;;;;;;;21.25;40.41;98965.63;4547192;28;20031;-57
2023/10/25 08:45:29;;;;;;;0.50;0.50;;;;;;;21.24;40.69;98958.25;4546637;28;20033;-56
2023/10/25 08:47:39;;;;;;;0.35;0.35;;;;;;;21.24;40.76;98955.38;4546700;28;20866;-57
2023/10/25 08:49:49;;;;;;;0.50;0.50;;;;;;;21.24;41.12;98964.81;4546604;28;20079;-57
2023/10/25 08:52:01;;;;;;;0.47;0.47;;;;;;;21.24;41.46;98961.94;4546981;28;20064;-57
2023/10/25 08:54:14;;;;;;;0.30;0.30;;;;;;;21.24;41.24;98950.47;4545545;28;20056;-57
2023/10/25 08:56:25;;;;;;;0.95;0.40;;;;;;;21.24;41.40;98961.09;4554835;28;20560;-57
2023/10/25 08:58:36;;;;;;;0.40;0.40;;;;;;;21.24;41.68;98958.25;4547613;28;20041;-57
2023/10/25 09:00:47;;;;;;;0.50;0.40;;;;;;;21.23;41.45;98953.75;4545929;28;20461;-57
2023/10/25 09:02:59;;;;;;;0.40;0.40;;;;;;;21.23;41.38;98945.94;4547306;28;20028;-56
2023/10/25 09:05:09;;;;;;;0.50;0.35;;;;;;;21.24;41.75;98943.88;4546016;28;20056;-57
2023/10/25 09:07:30;;;;;;;0.40;0.40;;;;;;;21.13;42.07;98926.69;4544958;28;20032;-57
2023/10/25 09:09:40;;;;;;;0.40;0.40;;;;;;;21.23;41.99;98943.06;4546784;28;20088;-57
2023/10/25 09:11:50;;;;;;;0.50;0.35;;;;;;;21.23;42.18;98943.06;4545962;28;20045;-57
2023/10/25 09:14:01;;;;;;;0.52;0.40;;;;;;;21.22;42.11;98938.56;4548921;28;20029;-57
2023/10/25 09:16:13;;;;;;;0.52;0.52;;;;;;;21.22;42.19;98935.69;4546705;28;20041;-57
2023/10/25 09:18:23;;;;;;;0.93;0.50;;;;;;;21.22;42.18;98937.72;4554812;28;20029;-57
2023/10/25 09:20:34;;;;;;;0.57;0.40;;;;;;;21.22;41.53;98937.72;4545600;28;20033;-57
2023/10/25 09:22:44;;;;;;;0.65;0.50;;;;;;;21.21;41.44;98936.94;4544872;28;20120;-57
2023/10/25 09:25:00;;;;;;;0.43;0.43;;;;;;;21.23;41.37;98940.19;4545945;28;20403;-56
2023/10/25 09:27:10;;;;;;;0.60;0.50;;;;;;;21.23;41.38;98943.06;4545533;28;20028;-56
2023/10/25 09:29:25;;;;;;;0.63;0.57;;;;;;;21.21;41.77;98941.84;4549482;28;20500;-57
2023/10/25 09:31:37;;;;;;;0.82;0.50;;;;;;;21.22;41.69;98944.31;4548450;28;20094;-54
2023/10/25 09:33:48;;;;;;;0.60;0.52;;;;;;;21.22;41.64;98932.81;4549339;28;21179;-56
2023/10/25 09:35:58;;;;;;;0.50;0.50;;;;;;;21.22;41.86;98932.00;4550107;28;20037;-56
2023/10/25 09:38:09;;;;;;;0.73;0.52;;;;;;;21.21;41.56;98924.63;4548982;28;20116;-57
2023/10/25 09:40:20;;;;;;;0.60;0.52;;;;;;;21.20;41.98;98934.47;4548416;28;20076;-57
2023/10/25 09:42:32;;;;;;;0.60;0.52;;;;;;;21.22;42.20;98929.97;4549722;28;20114;-57
2023/10/25 09:44:50;;;;;;;0.60;0.52;;;;;;;21.23;42.27;98922.19;4548635;28;20641;-57
2023/10/25 09:47:06;;;;;;;0.52;0.50;;;;;;;21.23;42.29;98911.50;4549017;28;20047;-57
2023/10/25 09:49:25;;;;;;;1.70;0.70;;;;;;;21.23;41.97;98902.09;4547799;28;20025;-57
2023/10/25 09:52:14;;;;;;;0.98;0.60;;;;;;;21.23;42.03;98894.28;4549450;28;21489;-56
2023/10/25 09:54:32;;;;;;;1.00;0.75;;;;;;;21.23;42.24;98900.03;4521435;28;20060;-57
2023/10/25 09:56:42;;;;;;;0.70;0.70;;;;;;;21.23;42.20;98897.16;4557095;28;20123;-57
2023/10/25 09:58:54;;;;;;;0.65;0.60;;;;;;;21.23;42.07;98891.41;4548828;28;20025;-54
2023/10/25 10:01:05;;;;;;;0.73;0.73;;;;;;;21.24;41.76;98886.50;4548835;28;20063;-56
2023/10/25 10:03:30;;;;;;;1.08;0.70;;;;;;;21.23;42.03;98894.28;4548359;28;20120;-56
2023/10/25 10:05:52;;;;;;;1.08;0.70;;;;;;;21.24;41.58;98886.50;4549315;28;20017;-57
2023/10/25 10:08:12;;;;;;;1.17;0.80;;;;;;;21.24;41.85;98884.47;4549843;28;20037;-57
2023/10/25 10:10:28;;;;;;;1.30;0.82;;;;;;;21.24;41.56;98881.59;4549517;28;20068;-57
2023/10/25 10:12:39;;;;;;;1.13;0.80;;;;;;;21.25;41.75;98886.09;4547780;28;21331;-57
2023/10/25 10:14:51;;;;;;;0.98;0.73;;;;;;;21.18;42.11;98863.16;4549491;28;20040;-57
2023/10/25 10:17:09;;;;;;;1.50;1.10;;;;;;;21.25;42.30;98873.81;4550616;28;20041;-57
2023/10/25 10:19:21;;;;;;;0.95;0.80;;;;;;;21.24;42.30;98864.38;4550087;28;20033;-57